sensor_id;sensor_type;location;lat;lon;timestamp;pressure;altitude;pressure_sealevel;temperature;humidity
48053;BME280;33824;51.600;5.718;2023-06-14T00:01:32;101230.00;;;19.32;45.00
48053;BME280;33824;51.600;5.718;2023-06-14T00:04:00;101226.31;;;19.26;45.23
48053;BME280;33824;51.600;5.718;2023-06-14T00:06:28;101229.91;;;19.20;45.21
48053;BME280;33824;51.600;5.718;2023-06-14T00:08:54;101228.25;;;19.19;45.05
48053;BME280;33824;51.600;5.718;2023-06-14T00:11:20;101230.94;;;19.19;44.98
48053;BME280;33824;51.600;5.718;2023-06-14T00:13:46;101228.06;;;19.14;45.32
48053;BME280;33824;51.600;5.718;2023-06-14T00:16:12;101230.19;;;19.12;45.08
48053;BME280;33824;51.600;5.718;2023-06-14T00:18:38;101227.09;;;19.08;45.17
48053;BME280;33824;51.600;5.718;2023-06-14T00:21:04;101234.38;;;19.08;45.02
48053;BME280;33824;51.600;5.718;2023-06-14T00:23:30;101232.50;;;19.08;44.64
48053;BME280;33824;51.600;5.718;2023-06-14T00:25:56;101237.50;;;19.05;44.48
48053;BME280;33824;51.600;5.718;2023-06-14T00:28:21;101247.09;;;19.01;44.67
48053;BME280;33824;51.600;5.718;2023-06-14T00:30:47;101243.19;;;18.97;44.23
48053;BME280;33824;51.600;5.718;2023-06-14T00:33:13;101245.72;;;18.92;44.46
48053;BME280;33824;51.600;5.718;2023-06-14T00:35:39;101247.56;;;18.91;44.28
48053;BME280;33824;51.600;5.718;2023-06-14T00:38:04;101245.31;;;18.88;44.25
48053;BME280;33824;51.600;5.718;2023-06-14T00:40:30;101251.16;;;18.85;44.09
48053;BME280;33824;51.600;5.718;2023-06-14T00:42:55;101245.81;;;18.79;44.23
48053;BME280;33824;51.600;5.718;2023-06-14T00:45:21;101250.38;;;18.78;44.08
48053;BME280;33824;51.600;5.718;2023-06-14T00:47:47;101253.72;;;18.74;44.13
48053;BME280;33824;51.600;5.718;2023-06-14T00:50:16;101249.81;;;18.69;44.03
48053;BME280;33824;51.600;5.718;2023-06-14T00:52:42;101250.69;;;18.63;44.10
48053;BME280;33824;51.600;5.718;2023-06-14T00:55:08;101251.09;;;18.60;44.15
48053;BME280;33824;51.600;5.718;2023-06-14T00:57:34;101248.44;;;18.54;44.15
48053;BME280;33824;51.600;5.718;2023-06-14T01:00:03;101250.97;;;18.49;44.27
48053;BME280;33824;51.600;5.718;2023-06-14T01:02:30;101249.50;;;18.46;44.18
48053;BME280;33824;51.600;5.718;2023-06-14T01:04:55;101252.03;;;18.41;44.49
48053;BME280;33824;51.600;5.718;2023-06-14T01:13:13;101259.59;;;18.19;44.71
48053;BME280;33824;51.600;5.718;2023-06-14T01:15:43;101259.16;;;18.22;44.15
48053;BME280;33824;51.600;5.718;2023-06-14T01:18:09;101261.03;;;18.22;44.28
48053;BME280;33824;51.600;5.718;2023-06-14T01:20:43;101252.75;;;18.17;44.50
48053;BME280;33824;51.600;5.718;2023-06-14T01:23:11;101252.94;;;18.15;44.59
48053;BME280;33824;51.600;5.718;2023-06-14T01:25:39;101260.66;;;18.12;44.78
48053;BME280;33824;51.600;5.718;2023-06-14T01:28:06;101252.16;;;18.08;44.68
48053;BME280;33824;51.600;5.718;2023-06-14T01:30:37;101258.19;;;18.04;44.80
48053;BME280;33824;51.600;5.718;2023-06-14T01:33:04;101253.84;;;18.03;44.79
48053;BME280;33824;51.600;5.718;2023-06-14T01:35:31;101253.44;;;17.99;45.00
48053;BME280;33824;51.600;5.718;2023-06-14T01:37:58;101265.69;;;17.95;45.10
48053;BME280;33824;51.600;5.718;2023-06-14T01:40:24;101255.53;;;17.91;45.21
48053;BME280;33824;51.600;5.718;2023-06-14T01:42:51;101260.72;;;17.86;45.12
48053;BME280;33824;51.600;5.718;2023-06-14T01:45:18;101261.16;;;17.83;45.13
48053;BME280;33824;51.600;5.718;2023-06-14T01:47:44;101263.03;;;17.82;45.18
48053;BME280;33824;51.600;5.718;2023-06-14T01:50:10;101262.81;;;17.77;45.29
48053;BME280;33824;51.600;5.718;2023-06-14T01:52:37;101256.41;;;17.71;45.51
48053;BME280;33824;51.600;5.718;2023-06-14T01:55:04;101260.56;;;17.67;45.75
48053;BME280;33824;51.600;5.718;2023-06-14T01:57:31;101263.47;;;17.66;45.56
48053;BME280;33824;51.600;5.718;2023-06-14T01:59:56;101260.38;;;17.62;45.58
48053;BME280;33824;51.600;5.718;2023-06-14T02:02:22;101257.50;;;17.57;46.01
48053;BME280;33824;51.600;5.718;2023-06-14T02:04:48;101261.81;;;17.52;45.89
48053;BME280;33824;51.600;5.718;2023-06-14T02:07:14;101260.38;;;17.49;45.95
48053;BME280;33824;51.600;5.718;2023-06-14T02:09:40;101255.59;;;17.45;46.18
48053;BME280;33824;51.600;5.718;2023-06-14T02:12:07;101252.25;;;17.43;46.00
48053;BME280;33824;51.600;5.718;2023-06-14T02:14:32;101262.84;;;17.38;46.52
48053;BME280;33824;51.600;5.718;2023-06-14T02:16:59;101257.66;;;17.36;46.54
48053;BME280;33824;51.600;5.718;2023-06-14T02:19:26;101253.97;;;17.31;46.38
48053;BME280;33824;51.600;5.718;2023-06-14T02:21:52;101256.00;;;17.28;46.63
48053;BME280;33824;51.600;5.718;2023-06-14T02:24:17;101257.47;;;17.24;46.57
48053;BME280;33824;51.600;5.718;2023-06-14T02:26:43;101258.72;;;17.22;46.93
48053;BME280;33824;51.600;5.718;2023-06-14T02:29:09;101254.59;;;17.19;46.46
48053;BME280;33824;51.600;5.718;2023-06-14T02:31:36;101260.59;;;17.15;46.94
48053;BME280;33824;51.600;5.718;2023-06-14T02:34:02;101253.72;;;17.12;47.13
48053;BME280;33824;51.600;5.718;2023-06-14T02:36:28;101263.88;;;17.10;47.13
48053;BME280;33824;51.600;5.718;2023-06-14T02:38:57;101262.66;;;17.06;47.30
48053;BME280;33824;51.600;5.718;2023-06-14T02:41:25;101263.06;;;17.03;47.32
48053;BME280;33824;51.600;5.718;2023-06-14T02:43:52;101268.03;;;17.00;47.49
48053;BME280;33824;51.600;5.718;2023-06-14T02:46:18;101267.81;;;16.95;47.58
48053;BME280;33824;51.600;5.718;2023-06-14T02:48:44;101269.06;;;16.92;47.72
48053;BME280;33824;51.600;5.718;2023-06-14T02:51:10;101274.63;;;16.91;47.63
48053;BME280;33824;51.600;5.718;2023-06-14T02:53:36;101272.56;;;16.86;47.75
48053;BME280;33824;51.600;5.718;2023-06-14T02:56:02;101278.34;;;16.83;47.82
48053;BME280;33824;51.600;5.718;2023-06-14T02:58:29;101275.44;;;16.78;48.17
48053;BME280;33824;51.600;5.718;2023-06-14T03:00:55;101278.34;;;16.76;48.35
48053;BME280;33824;51.600;5.718;2023-06-14T03:03:21;101278.75;;;16.73;48.29
48053;BME280;33824;51.600;5.718;2023-06-14T03:05:48;101280.19;;;16.69;48.39
48053;BME280;33824;51.600;5.718;2023-06-14T03:08:15;101277.09;;;16.66;48.30
48053;BME280;33824;51.600;5.718;2023-06-14T03:10:43;101277.28;;;16.64;48.71
48053;BME280;33824;51.600;5.718;2023-06-14T03:13:09;101284.75;;;16.62;48.58
48053;BME280;33824;51.600;5.718;2023-06-14T03:15:36;101288.88;;;16.58;48.81
48053;BME280;33824;51.600;5.718;2023-06-14T03:18:02;101286.75;;;16.54;49.10
48053;BME280;33824;51.600;5.718;2023-06-14T03:20:29;101293.16;;;16.53;48.78
48053;BME280;33824;51.600;5.718;2023-06-14T03:22:59;101294.41;;;16.50;48.97
48053;BME280;33824;51.600;5.718;2023-06-14T03:25:26;101290.88;;;16.50;49.41
48053;BME280;33824;51.600;5.718;2023-06-14T03:27:55;101299.97;;;16.49;49.21
48053;BME280;33824;51.600;5.718;2023-06-14T03:30:21;101297.50;;;16.47;49.44
48053;BME280;33824;51.600;5.718;2023-06-14T03:32:46;101299.34;;;16.47;49.67
48053;BME280;33824;51.600;5.718;2023-06-14T03:35:12;101302.66;;;16.49;49.43
48053;BME280;33824;51.600;5.718;2023-06-14T03:37:45;101303.06;;;16.46;49.74
48053;BME280;33824;51.600;5.718;2023-06-14T03:40:15;101301.00;;;16.48;49.50
48053;BME280;33824;51.600;5.718;2023-06-14T03:42:41;101308.25;;;16.47;49.80
48053;BME280;33824;51.600;5.718;2023-06-14T03:45:07;101299.97;;;16.49;49.82
48053;BME280;33824;51.600;5.718;2023-06-14T03:47:33;101307.03;;;16.50;49.69
48053;BME280;33824;51.600;5.718;2023-06-14T03:49:59;101311.16;;;16.52;49.87
48053;BME280;33824;51.600;5.718;2023-06-14T03:52:26;101316.34;;;16.54;50.02
48053;BME280;33824;51.600;5.718;2023-06-14T03:54:52;101307.91;;;16.57;50.42
48053;BME280;33824;51.600;5.718;2023-06-14T03:57:18;101310.19;;;16.60;50.53
48053;BME280;33824;51.600;5.718;2023-06-14T03:59:44;101310.59;;;16.63;50.32
48053;BME280;33824;51.600;5.718;2023-06-14T04:02:10;101313.94;;;16.65;50.50
48053;BME280;33824;51.600;5.718;2023-06-14T04:04:36;101317.50;;;16.72;50.38
48053;BME280;33824;51.600;5.718;2023-06-14T04:07:02;101314.19;;;16.77;50.58
48053;BME280;33824;51.600;5.718;2023-06-14T04:09:31;101318.53;;;16.78;50.37
48053;BME280;33824;51.600;5.718;2023-06-14T04:11:57;101314.81;;;16.86;50.46
48053;BME280;33824;51.600;5.718;2023-06-14T04:14:22;101316.72;;;16.92;50.41
48053;BME280;33824;51.600;5.718;2023-06-14T04:16:49;101322.94;;;16.99;50.42
48053;BME280;33824;51.600;5.718;2023-06-14T04:19:15;101319.41;;;17.05;50.44
48053;BME280;33824;51.600;5.718;2023-06-14T04:21:41;101326.28;;;17.14;50.23
48053;BME280;33824;51.600;5.718;2023-06-14T04:24:07;101326.28;;;17.20;50.14
48053;BME280;33824;51.600;5.718;2023-06-14T04:26:42;101321.72;;;17.27;50.36
48053;BME280;33824;51.600;5.718;2023-06-14T04:29:14;101328.16;;;17.33;50.41
48053;BME280;33824;51.600;5.718;2023-06-14T04:31:42;101323.00;;;17.45;50.19
48053;BME280;33824;51.600;5.718;2023-06-14T04:34:08;101326.31;;;17.53;50.10
48053;BME280;33824;51.600;5.718;2023-06-14T04:36:34;101330.06;;;17.59;49.90
48053;BME280;33824;51.600;5.718;2023-06-14T04:39:03;101335.47;;;17.72;49.95
48053;BME280;33824;51.600;5.718;2023-06-14T04:41:30;101335.84;;;17.82;49.82
48053;BME280;33824;51.600;5.718;2023-06-14T04:43:57;101339.38;;;17.89;49.50
48053;BME280;33824;51.600;5.718;2023-06-14T04:46:24;101339.59;;;17.94;49.39
48053;BME280;33824;51.600;5.718;2023-06-14T04:48:49;101332.91;;;18.03;49.21
48053;BME280;33824;51.600;5.718;2023-06-14T04:51:15;101330.22;;;18.10;49.22
48053;BME280;33824;51.600;5.718;2023-06-14T04:53:42;101333.09;;;18.21;48.91
48053;BME280;33824;51.600;5.718;2023-06-14T04:56:09;101338.03;;;18.31;48.80
48053;BME280;33824;51.600;5.718;2023-06-14T04:58:35;101335.50;;;18.43;48.54
48053;BME280;33824;51.600;5.718;2023-06-14T05:01:00;101340.25;;;18.54;48.68
48053;BME280;33824;51.600;5.718;2023-06-14T05:03:27;101344.81;;;18.60;48.36
48053;BME280;33824;51.600;5.718;2023-06-14T05:05:52;101347.69;;;18.65;48.51
48053;BME280;33824;51.600;5.718;2023-06-14T05:08:20;101347.44;;;18.73;48.31
48053;BME280;33824;51.600;5.718;2023-06-14T05:10:49;101338.47;;;18.86;48.01
48053;BME280;33824;51.600;5.718;2023-06-14T05:13:14;101353.78;;;18.92;47.90
48053;BME280;33824;51.600;5.718;2023-06-14T05:15:40;101351.47;;;18.95;48.01
48053;BME280;33824;51.600;5.718;2023-06-14T05:18:06;101356.63;;;19.03;47.75
48053;BME280;33824;51.600;5.718;2023-06-14T05:20:35;101359.09;;;19.11;47.68
48053;BME280;33824;51.600;5.718;2023-06-14T05:23:02;101353.63;;;19.18;47.23
48053;BME280;33824;51.600;5.718;2023-06-14T05:25:28;101357.75;;;19.27;47.46
48053;BME280;33824;51.600;5.718;2023-06-14T05:27:54;101352.91;;;19.36;47.71
48053;BME280;33824;51.600;5.718;2023-06-14T05:30:19;101360.78;;;19.44;47.43
48053;BME280;33824;51.600;5.718;2023-06-14T05:32:45;101360.72;;;19.50;47.16
48053;BME280;33824;51.600;5.718;2023-06-14T05:35:11;101361.28;;;19.59;47.41
48053;BME280;33824;51.600;5.718;2023-06-14T05:37:37;101367.63;;;19.71;47.10
48053;BME280;33824;51.600;5.718;2023-06-14T05:40:03;101366.28;;;19.80;46.77
48053;BME280;33824;51.600;5.718;2023-06-14T05:42:32;101371.59;;;19.93;46.57
48053;BME280;33824;51.600;5.718;2023-06-14T05:44:57;101377.16;;;19.98;46.22
48053;BME280;33824;51.600;5.718;2023-06-14T05:47:23;101373.22;;;20.19;46.36
48053;BME280;33824;51.600;5.718;2023-06-14T05:49:48;101377.28;;;20.28;45.75
48053;BME280;33824;51.600;5.718;2023-06-14T05:52:14;101378.66;;;20.37;45.64
48053;BME280;33824;51.600;5.718;2023-06-14T05:54:40;101379.41;;;20.44;45.32
48053;BME280;33824;51.600;5.718;2023-06-14T05:57:06;101386.72;;;20.44;44.59
48053;BME280;33824;51.600;5.718;2023-06-14T05:59:32;101377.97;;;20.60;44.62
48053;BME280;33824;51.600;5.718;2023-06-14T06:01:58;101384.38;;;20.66;44.45
48053;BME280;33824;51.600;5.718;2023-06-14T06:04:23;101391.03;;;20.81;43.82
48053;BME280;33824;51.600;5.718;2023-06-14T06:06:49;101389.31;;;20.87;43.63
48053;BME280;33824;51.600;5.718;2023-06-14T06:09:14;101387.97;;;20.96;43.37
48053;BME280;33824;51.600;5.718;2023-06-14T06:11:40;101389.59;;;20.97;43.10
48053;BME280;33824;51.600;5.718;2023-06-14T06:14:06;101384.47;;;21.07;42.88
48053;BME280;33824;51.600;5.718;2023-06-14T06:16:32;101392.75;;;21.12;42.53
48053;BME280;33824;51.600;5.718;2023-06-14T06:18:57;101388.53;;;21.16;42.82
48053;BME280;33824;51.600;5.718;2023-06-14T06:21:23;101389.63;;;21.27;43.11
48053;BME280;33824;51.600;5.718;2023-06-14T06:23:48;101396.53;;;21.41;42.60
48053;BME280;33824;51.600;5.718;2023-06-14T06:26:14;101402.44;;;21.49;42.29
48053;BME280;33824;51.600;5.718;2023-06-14T06:28:40;101395.00;;;21.45;41.81
48053;BME280;33824;51.600;5.718;2023-06-14T06:31:06;101398.78;;;21.56;42.58
48053;BME280;33824;51.600;5.718;2023-06-14T06:33:31;101408.84;;;21.67;41.50
48053;BME280;33824;51.600;5.718;2023-06-14T06:35:57;101405.19;;;21.73;41.69
48053;BME280;33824;51.600;5.718;2023-06-14T06:38:22;101413.03;;;21.92;42.19
48053;BME280;33824;51.600;5.718;2023-06-14T06:40:48;101418.47;;;22.16;41.42
48053;BME280;33824;51.600;5.718;2023-06-14T06:43:14;101415.63;;;22.11;41.29
48053;BME280;33824;51.600;5.718;2023-06-14T06:45:40;101414.34;;;22.13;41.08
48053;BME280;33824;51.600;5.718;2023-06-14T06:48:05;101419.78;;;22.25;40.92
48053;BME280;33824;51.600;5.718;2023-06-14T06:50:31;101414.69;;;22.40;40.57
48053;BME280;33824;51.600;5.718;2023-06-14T06:52:57;101406.97;;;22.48;40.32
48053;BME280;33824;51.600;5.718;2023-06-14T06:55:23;101419.63;;;22.55;39.84
48053;BME280;33824;51.600;5.718;2023-06-14T06:57:48;101420.19;;;22.57;40.21
48053;BME280;33824;51.600;5.718;2023-06-14T07:00:15;101418.66;;;22.61;39.71
48053;BME280;33824;51.600;5.718;2023-06-14T07:02:41;101427.53;;;22.68;40.48
48053;BME280;33824;51.600;5.718;2023-06-14T07:05:07;101432.50;;;22.82;39.64
48053;BME280;33824;51.600;5.718;2023-06-14T07:07:34;101422.16;;;22.96;39.93
48053;BME280;33824;51.600;5.718;2023-06-14T07:10:00;101432.13;;;23.19;39.28
48053;BME280;33824;51.600;5.718;2023-06-14T07:12:26;101432.94;;;23.19;38.70
48053;BME280;33824;51.600;5.718;2023-06-14T07:14:51;101435.19;;;23.22;38.29
48053;BME280;33824;51.600;5.718;2023-06-14T07:17:17;101437.25;;;23.44;39.44
48053;BME280;33824;51.600;5.718;2023-06-14T07:19:42;101434.44;;;23.55;38.48
48053;BME280;33824;51.600;5.718;2023-06-14T07:22:08;101432.34;;;23.74;37.71
48053;BME280;33824;51.600;5.718;2023-06-14T07:24:34;101440.41;;;23.69;37.61
48053;BME280;33824;51.600;5.718;2023-06-14T07:27:01;101440.75;;;23.72;37.51
48053;BME280;33824;51.600;5.718;2023-06-14T07:29:28;101443.38;;;23.67;37.00
48053;BME280;33824;51.600;5.718;2023-06-14T07:31:54;101440.16;;;23.70;37.02
48053;BME280;33824;51.600;5.718;2023-06-14T07:34:20;101443.41;;;23.84;36.37
48053;BME280;33824;51.600;5.718;2023-06-14T07:36:45;101440.81;;;23.94;36.68
48053;BME280;33824;51.600;5.718;2023-06-14T07:39:12;101447.25;;;24.05;36.41
48053;BME280;33824;51.600;5.718;2023-06-14T07:41:37;101439.19;;;24.10;36.45
48053;BME280;33824;51.600;5.718;2023-06-14T07:44:03;101448.63;;;24.19;35.70
48053;BME280;33824;51.600;5.718;2023-06-14T07:46:28;101455.38;;;24.33;35.62
48053;BME280;33824;51.600;5.718;2023-06-14T07:48:54;101450.56;;;24.40;35.58
48053;BME280;33824;51.600;5.718;2023-06-14T07:51:20;101449.72;;;24.56;35.28
48053;BME280;33824;51.600;5.718;2023-06-14T07:53:48;101453.38;;;24.67;35.44
48053;BME280;33824;51.600;5.718;2023-06-14T07:56:13;101454.34;;;24.77;35.33
48053;BME280;33824;51.600;5.718;2023-06-14T07:58:39;101460.19;;;24.64;35.40
48053;BME280;33824;51.600;5.718;2023-06-14T08:01:05;101460.94;;;24.60;34.42
48053;BME280;33824;51.600;5.718;2023-06-14T08:03:33;101461.13;;;24.53;34.59
48053;BME280;33824;51.600;5.718;2023-06-14T08:06:00;101469.34;;;24.58;34.27
48053;BME280;33824;51.600;5.718;2023-06-14T08:08:26;101463.22;;;24.68;33.61
48053;BME280;33824;51.600;5.718;2023-06-14T08:10:52;101461.91;;;24.92;33.94
48053;BME280;33824;51.600;5.718;2023-06-14T08:13:18;101461.38;;;24.90;34.16
48053;BME280;33824;51.600;5.718;2023-06-14T08:15:43;101467.13;;;25.15;34.08
48053;BME280;33824;51.600;5.718;2023-06-14T08:18:09;101461.69;;;24.94;33.63
48053;BME280;33824;51.600;5.718;2023-06-14T08:20:35;101461.06;;;24.87;33.68
48053;BME280;33824;51.600;5.718;2023-06-14T08:23:02;101464.16;;;24.95;33.19
48053;BME280;33824;51.600;5.718;2023-06-14T08:25:29;101468.66;;;25.06;33.34
48053;BME280;33824;51.600;5.718;2023-06-14T08:27:55;101467.63;;;25.12;32.93
48053;BME280;33824;51.600;5.718;2023-06-14T08:30:21;101468.28;;;24.98;32.26
48053;BME280;33824;51.600;5.718;2023-06-14T08:32:47;101466.63;;;25.18;32.60
48053;BME280;33824;51.600;5.718;2023-06-14T08:35:13;101459.44;;;25.12;31.94
48053;BME280;33824;51.600;5.718;2023-06-14T08:37:40;101453.28;;;25.00;32.27
48053;BME280;33824;51.600;5.718;2023-06-14T08:40:26;101457.44;;;25.03;30.43
48053;BME280;33824;51.600;5.718;2023-06-14T08:42:54;101471.72;;;25.10;30.18
48053;BME280;33824;51.600;5.718;2023-06-14T08:45:21;101459.56;;;25.01;30.89
48053;BME280;33824;51.600;5.718;2023-06-14T08:47:48;101468.22;;;25.14;30.51
48053;BME280;33824;51.600;5.718;2023-06-14T08:50:23;101463.78;;;25.35;29.78
48053;BME280;33824;51.600;5.718;2023-06-14T08:52:54;101470.84;;;25.53;30.07
48053;BME280;33824;51.600;5.718;2023-06-14T08:55:23;101465.59;;;25.51;29.81
48053;BME280;33824;51.600;5.718;2023-06-14T08:57:51;101465.69;;;25.56;28.85
48053;BME280;33824;51.600;5.718;2023-06-14T09:00:19;101461.75;;;25.74;28.90
48053;BME280;33824;51.600;5.718;2023-06-14T09:02:46;101458.69;;;25.97;28.97
48053;BME280;33824;51.600;5.718;2023-06-14T09:05:12;101458.53;;;26.14;28.39
48053;BME280;33824;51.600;5.718;2023-06-14T09:07:41;101462.97;;;26.20;28.29
48053;BME280;33824;51.600;5.718;2023-06-14T09:10:12;101457.56;;;26.25;27.92
48053;BME280;33824;51.600;5.718;2023-06-14T09:12:38;101451.88;;;26.37;28.32
48053;BME280;33824;51.600;5.718;2023-06-14T09:15:07;101457.72;;;26.50;27.95
48053;BME280;33824;51.600;5.718;2023-06-14T09:17:35;101451.75;;;26.58;27.53
48053;BME280;33824;51.600;5.718;2023-06-14T09:20:02;101465.22;;;26.70;27.88
48053;BME280;33824;51.600;5.718;2023-06-14T09:22:32;101462.66;;;26.53;26.62
48053;BME280;33824;51.600;5.718;2023-06-14T09:24:58;101467.97;;;26.33;25.98
48053;BME280;33824;51.600;5.718;2023-06-14T09:27:28;101463.03;;;26.30;25.93
48053;BME280;33824;51.600;5.718;2023-06-14T09:29:54;101468.66;;;26.50;26.76
48053;BME280;33824;51.600;5.718;2023-06-14T09:32:21;101456.38;;;26.58;26.83
48053;BME280;33824;51.600;5.718;2023-06-14T09:34:47;101460.31;;;26.77;27.31
48053;BME280;33824;51.600;5.718;2023-06-14T09:37:26;101469.84;;;26.69;26.60
48053;BME280;33824;51.600;5.718;2023-06-14T09:39:51;101464.38;;;26.69;27.54
48053;BME280;33824;51.600;5.718;2023-06-14T09:42:18;101465.81;;;26.82;27.48
48053;BME280;33824;51.600;5.718;2023-06-14T09:44:48;101476.31;;;26.53;26.32
48053;BME280;33824;51.600;5.718;2023-06-14T09:47:17;101467.78;;;26.45;26.52
48053;BME280;33824;51.600;5.718;2023-06-14T09:49:43;101472.13;;;26.36;26.67
48053;BME280;33824;51.600;5.718;2023-06-14T09:52:17;101461.72;;;26.33;26.08
48053;BME280;33824;51.600;5.718;2023-06-14T09:54:44;101463.72;;;26.52;26.76
48053;BME280;33824;51.600;5.718;2023-06-14T09:57:16;101461.81;;;26.53;25.96
48053;BME280;33824;51.600;5.718;2023-06-14T09:59:43;101459.47;;;26.30;26.49
48053;BME280;33824;51.600;5.718;2023-06-14T10:05:06;101465.19;;;26.23;26.24
48053;BME280;33824;51.600;5.718;2023-06-14T10:07:38;101457.78;;;26.18;26.21
48053;BME280;33824;51.600;5.718;2023-06-14T10:10:06;101460.34;;;26.03;26.80
48053;BME280;33824;51.600;5.718;2023-06-14T10:12:32;101451.88;;;26.00;27.17
48053;BME280;33824;51.600;5.718;2023-06-14T10:14:58;101457.56;;;26.25;27.11
48053;BME280;33824;51.600;5.718;2023-06-14T10:17:50;101463.19;;;26.50;26.60
48053;BME280;33824;51.600;5.718;2023-06-14T10:20:35;101445.53;;;26.73;27.46
48053;BME280;33824;51.600;5.718;2023-06-14T10:23:08;101451.22;;;26.61;26.22
48053;BME280;33824;51.600;5.718;2023-06-14T10:25:35;101441.84;;;26.52;27.35
48053;BME280;33824;51.600;5.718;2023-06-14T10:28:18;101447.47;;;26.31;25.95
48053;BME280;33824;51.600;5.718;2023-06-14T10:33:35;101460.19;;;26.57;27.08
48053;BME280;33824;51.600;5.718;2023-06-14T10:39:00;101454.97;;;26.50;27.68
48053;BME280;33824;51.600;5.718;2023-06-14T10:41:27;101446.72;;;26.92;27.45
48053;BME280;33824;51.600;5.718;2023-06-14T10:47:09;101445.84;;;26.82;28.07
48053;BME280;33824;51.600;5.718;2023-06-14T10:49:43;101444.50;;;26.84;27.87
48053;BME280;33824;51.600;5.718;2023-06-14T10:52:11;101453.41;;;27.16;28.15
48053;BME280;33824;51.600;5.718;2023-06-14T10:57:21;101459.63;;;26.97;27.60
48053;BME280;33824;51.600;5.718;2023-06-14T10:59:47;101461.53;;;26.96;27.48
48053;BME280;33824;51.600;5.718;2023-06-14T11:02:39;101452.19;;;26.92;27.55
48053;BME280;33824;51.600;5.718;2023-06-14T11:05:15;101450.84;;;26.95;27.71
48053;BME280;33824;51.600;5.718;2023-06-14T11:10:39;101452.78;;;26.99;28.09
48053;BME280;33824;51.600;5.718;2023-06-14T11:13:08;101458.59;;;27.23;27.59
48053;BME280;33824;51.600;5.718;2023-06-14T11:15:36;101446.56;;;27.24;27.85
48053;BME280;33824;51.600;5.718;2023-06-14T11:18:06;101453.28;;;26.91;28.62
48053;BME280;33824;51.600;5.718;2023-06-14T11:20:34;101457.53;;;26.72;27.63
48053;BME280;33824;51.600;5.718;2023-06-14T11:23:01;101457.00;;;26.70;27.52
48053;BME280;33824;51.600;5.718;2023-06-14T11:25:27;101459.63;;;26.50;27.13
48053;BME280;33824;51.600;5.718;2023-06-14T11:27:56;101453.56;;;26.43;27.36
48053;BME280;33824;51.600;5.718;2023-06-14T11:30:23;101453.91;;;26.51;28.44
48053;BME280;33824;51.600;5.718;2023-06-14T11:32:50;101427.53;;;26.35;28.21
48053;BME280;33824;51.600;5.718;2023-06-14T11:35:18;101444.78;;;26.41;28.76
48053;BME280;33824;51.600;5.718;2023-06-14T11:37:44;101425.00;;;26.23;28.21
48053;BME280;33824;51.600;5.718;2023-06-14T11:40:11;101445.50;;;26.21;27.73
48053;BME280;33824;51.600;5.718;2023-06-14T11:42:39;101446.63;;;26.30;28.04
48053;BME280;33824;51.600;5.718;2023-06-14T11:45:09;101447.06;;;26.54;27.51
48053;BME280;33824;51.600;5.718;2023-06-14T11:47:36;101441.00;;;26.47;27.52
48053;BME280;33824;51.600;5.718;2023-06-14T11:50:03;101437.69;;;26.40;28.59
48053;BME280;33824;51.600;5.718;2023-06-14T11:52:29;101448.97;;;26.53;28.61
48053;BME280;33824;51.600;5.718;2023-06-14T11:54:56;101443.63;;;26.79;28.11
48053;BME280;33824;51.600;5.718;2023-06-14T11:57:21;101443.13;;;26.87;27.88
48053;BME280;33824;51.600;5.718;2023-06-14T11:59:48;101433.03;;;26.87;27.34
48053;BME280;33824;51.600;5.718;2023-06-14T12:02:18;101443.19;;;27.02;26.84
48053;BME280;33824;51.600;5.718;2023-06-14T12:04:46;101445.69;;;27.03;26.83
48053;BME280;33824;51.600;5.718;2023-06-14T12:07:17;101441.84;;;27.09;27.06
48053;BME280;33824;51.600;5.718;2023-06-14T12:12:20;101438.81;;;26.96;26.58
48053;BME280;33824;51.600;5.718;2023-06-14T12:14:47;101431.75;;;27.15;26.08
48053;BME280;33824;51.600;5.718;2023-06-14T12:17:12;101431.16;;;27.03;26.91
48053;BME280;33824;51.600;5.718;2023-06-14T12:19:42;101444.88;;;27.08;27.15
48053;BME280;33824;51.600;5.718;2023-06-14T12:22:12;101453.38;;;27.11;25.05
48053;BME280;33824;51.600;5.718;2023-06-14T12:24:39;101442.69;;;27.15;26.56
48053;BME280;33824;51.600;5.718;2023-06-14T12:27:05;101443.97;;;26.87;27.60
48053;BME280;33824;51.600;5.718;2023-06-14T12:29:31;101446.16;;;26.85;27.44
48053;BME280;33824;51.600;5.718;2023-06-14T12:31:57;101442.69;;;27.10;26.90
48053;BME280;33824;51.600;5.718;2023-06-14T12:34:26;101435.34;;;27.36;27.62
48053;BME280;33824;51.600;5.718;2023-06-14T12:36:53;101432.47;;;26.90;26.91
48053;BME280;33824;51.600;5.718;2023-06-14T12:39:19;101441.09;;;27.24;25.98
48053;BME280;33824;51.600;5.718;2023-06-14T12:41:45;101430.75;;;27.56;26.40
48053;BME280;33824;51.600;5.718;2023-06-14T12:44:12;101445.50;;;27.40;26.75
48053;BME280;33824;51.600;5.718;2023-06-14T12:46:38;101430.44;;;27.38;26.98
48053;BME280;33824;51.600;5.718;2023-06-14T12:49:08;101429.59;;;27.32;26.94
48053;BME280;33824;51.600;5.718;2023-06-14T12:51:34;101432.59;;;27.26;27.36
48053;BME280;33824;51.600;5.718;2023-06-14T12:54:00;101433.72;;;27.40;26.98
48053;BME280;33824;51.600;5.718;2023-06-14T12:56:25;101434.22;;;27.16;27.04
48053;BME280;33824;51.600;5.718;2023-06-14T12:58:51;101438.06;;;27.15;27.36
48053;BME280;33824;51.600;5.718;2023-06-14T13:01:17;101442.16;;;27.28;26.68
48053;BME280;33824;51.600;5.718;2023-06-14T13:03:43;101444.09;;;27.23;26.79
48053;BME280;33824;51.600;5.718;2023-06-14T13:06:08;101434.53;;;27.35;27.14
48053;BME280;33824;51.600;5.718;2023-06-14T13:08:34;101439.47;;;27.43;26.72
48053;BME280;33824;51.600;5.718;2023-06-14T13:10:59;101437.78;;;27.22;27.35
48053;BME280;33824;51.600;5.718;2023-06-14T13:13:26;101430.41;;;27.33;26.98
48053;BME280;33824;51.600;5.718;2023-06-14T13:15:51;101444.72;;;27.60;26.70